createdAt,value
2019-04-21T00:01:14.605Z,11.60
2019-04-21T00:03:48.382Z,11.50
2019-04-21T00:06:31.968Z,11.50
2019-04-21T00:09:06.876Z,11.40
2019-04-21T00:11:29.885Z,11.30
2019-04-21T00:13:48.161Z,11.30
2019-04-21T00:16:06.792Z,11.20
2019-04-21T00:18:40.699Z,11.10
2019-04-21T00:21:10.999Z,11.00
2019-04-21T00:23:41.334Z,11.00
2019-04-21T00:26:09.123Z,10.90
2019-04-21T00:28:58.124Z,10.80
2019-04-21T00:31:12.374Z,10.80
2019-04-21T00:33:25.879Z,10.80
2019-04-21T00:35:57.298Z,10.50
2019-04-21T00:38:43.757Z,10.50
2019-04-21T00:41:05.611Z,10.50
2019-04-21T00:43:27.997Z,10.50
2019-04-21T00:45:51.818Z,10.40
2019-04-21T00:48:29.847Z,10.40
2019-04-21T00:51:16.652Z,10.20
2019-04-21T00:53:45.542Z,10.20
2019-04-21T00:56:08.576Z,10.20
2019-04-21T00:58:33.200Z,10.20
2019-04-21T01:01:01.837Z,10.20
2019-04-21T01:03:35.471Z,10.10
2019-04-21T01:05:58.991Z,10.00
2019-04-21T01:08:30.245Z,9.80
2019-04-21T01:10:49.260Z,9.80
2019-04-21T01:13:27.769Z,9.80
2019-04-21T01:15:54.665Z,9.60
2019-04-21T01:18:24.065Z,9.50
2019-04-21T01:20:26.494Z,9.60
2019-04-21T01:22:53.709Z,9.70
2019-04-21T01:25:28.100Z,9.60
2019-04-21T01:28:07.263Z,9.70
2019-04-21T01:30:41.270Z,9.70
2019-04-21T01:33:07.657Z,9.70
2019-04-21T01:35:34.684Z,9.70
2019-04-21T01:38:01.927Z,9.70
2019-04-21T01:40:40.996Z,9.70
2019-04-21T01:43:00.314Z,9.70
2019-04-21T01:45:26.513Z,9.70
2019-04-21T01:47:50.851Z,9.60
2019-04-21T01:50:25.879Z,9.60
2019-04-21T01:52:58.942Z,9.60
2019-04-21T01:55:30.797Z,9.60
2019-04-21T01:58:00.339Z,9.50
2019-04-21T02:00:45.646Z,9.50
2019-04-21T02:03:36.311Z,9.50
2019-04-21T02:05:47.700Z,9.40
2019-04-21T02:08:10.955Z,9.30
2019-04-21T02:10:46.283Z,9.30
2019-04-21T02:13:03.606Z,9.30
2019-04-21T02:18:06.061Z,9.20
2019-04-21T02:20:21.804Z,9.20
2019-04-21T02:23:17.825Z,9.20
2019-04-21T02:25:33.559Z,9.10
2019-04-21T02:28:07.946Z,9.10
2019-04-21T02:30:36.502Z,9.10
2019-04-21T02:33:08.714Z,9.00
2019-04-21T02:35:40.304Z,9.00
2019-04-21T02:40:30.308Z,8.90
2019-04-21T02:45:23.310Z,8.80
2019-04-21T02:47:57.283Z,8.70
2019-04-21T02:50:33.953Z,8.70
2019-04-21T02:55:17.771Z,8.60
2019-04-21T02:57:49.410Z,8.60
2019-04-21T03:02:46.825Z,8.50
2019-04-21T03:08:09.312Z,8.40
2019-04-21T03:10:43.355Z,8.40
2019-04-21T03:13:05.686Z,8.30
2019-04-21T03:15:45.100Z,8.30
2019-04-21T03:18:06.453Z,8.30
2019-04-21T03:20:33.693Z,8.30
2019-04-21T03:23:02.140Z,8.20
2019-04-21T03:25:33.247Z,8.30
2019-04-21T03:33:32.391Z,8.20
2019-04-21T03:45:12.659Z,8.10
2019-04-21T03:47:40.444Z,8.10
2019-04-21T03:50:11.462Z,8.00
2019-04-21T03:52:38.760Z,8.00
2019-04-21T03:55:51.383Z,8.00
2019-04-21T03:58:04.319Z,7.90
2019-04-21T04:00:40.108Z,7.80
2019-04-21T04:03:10.607Z,7.70
2019-04-21T04:05:59.562Z,7.70
2019-04-21T04:08:22.803Z,7.70
2019-04-21T04:10:51.886Z,7.60
2019-04-21T04:13:07.732Z,7.50
2019-04-21T04:18:04.699Z,7.30
2019-04-21T04:20:39.964Z,7.30
2019-04-21T04:23:05.762Z,7.30
2019-04-21T04:25:25.248Z,7.20
2019-04-21T04:28:08.215Z,7.20
2019-04-21T04:32:46.913Z,7.10
2019-04-21T04:35:38.405Z,7.10
2019-04-21T04:41:19.859Z,7.00
2019-04-21T04:43:24.945Z,7.00
2019-04-21T04:48:22.876Z,6.90
2019-04-21T04:53:20.439Z,6.90
2019-04-21T04:58:26.512Z,6.90
2019-04-21T05:03:15.602Z,7.00
2019-04-21T05:06:30.315Z,7.00
2019-04-21T05:11:46.103Z,7.00
2019-04-21T05:19:04.128Z,7.20
2019-04-21T05:21:30.272Z,7.30
2019-04-21T05:23:42.688Z,7.30
2019-04-21T05:26:04.360Z,7.40
2019-04-21T05:28:32.864Z,7.50
2019-04-21T05:31:18.430Z,7.60
2019-04-21T05:33:44.825Z,7.70
2019-04-21T05:36:30.917Z,7.70
2019-04-21T05:39:03.846Z,7.80
2019-04-21T05:41:26.632Z,7.90
2019-04-21T05:44:06.259Z,8.00
2019-04-21T05:46:32.296Z,8.00
2019-04-21T05:49:03.829Z,8.10
2019-04-21T05:51:25.378Z,8.30
2019-04-21T05:54:07.282Z,8.40
2019-04-21T05:56:32.191Z,8.50
2019-04-21T05:58:57.963Z,8.60
2019-04-21T06:04:01.757Z,8.80
2019-04-21T06:06:27.478Z,8.90
2019-04-21T06:08:47.830Z,9.00
2019-04-21T06:11:21.009Z,9.20
2019-04-21T06:13:48.243Z,9.30
2019-04-21T06:16:20.149Z,9.30
2019-04-21T06:18:47.985Z,9.40
2019-04-21T06:21:13.157Z,9.60
2019-04-21T06:23:35.974Z,9.70
2019-04-21T06:26:19.803Z,9.90
2019-04-21T06:28:42.730Z,10.00
2019-04-21T06:31:11.183Z,10.20
2019-04-21T06:38:57.728Z,10.30
2019-04-21T06:41:21.461Z,10.50
2019-04-21T06:43:48.208Z,10.60
2019-04-21T06:46:21.099Z,10.80
2019-04-21T06:48:44.070Z,11.00
2019-04-21T06:51:08.579Z,11.10
2019-04-21T06:53:50.230Z,11.20
2019-04-21T06:56:10.469Z,11.40
2019-04-21T06:58:31.858Z,11.60
2019-04-21T07:00:56.384Z,11.80
2019-04-21T07:03:29.726Z,12.00
2019-04-21T07:06:00.188Z,12.30
2019-04-21T07:10:54.628Z,12.70
2019-04-21T07:13:14.843Z,12.90
2019-04-21T07:15:53.187Z,13.10
2019-04-21T07:18:19.120Z,13.20
2019-04-21T07:20:50.523Z,13.40
2019-04-21T07:23:17.490Z,13.50
2019-04-21T07:25:39.036Z,13.60
2019-04-21T07:28:03.081Z,13.80
2019-04-21T07:30:37.162Z,14.00
2019-04-21T07:33:23.641Z,14.10
2019-04-21T07:35:31.974Z,14.20
2019-04-21T07:38:00.084Z,14.40
2019-04-21T07:40:23.187Z,14.60
2019-04-21T07:42:54.164Z,14.70
2019-04-21T07:45:16.855Z,14.90
2019-04-21T07:47:53.432Z,15.00
2019-04-21T07:50:31.829Z,15.10
2019-04-21T07:53:07.010Z,15.30
2019-04-21T07:58:02.680Z,15.50
2019-04-21T08:00:35.918Z,15.60
2019-04-21T08:03:05.525Z,15.80
2019-04-21T08:05:29.414Z,16.00
2019-04-21T08:10:21.277Z,16.30
2019-04-21T08:12:47.722Z,16.50
2019-04-21T08:15:27.663Z,16.50
2019-04-21T08:17:47.273Z,16.70
2019-04-21T08:20:13.935Z,16.80
2019-04-21T08:22:46.552Z,16.80
2019-04-21T08:25:14.949Z,16.90
2019-04-21T08:27:50.546Z,17.10
2019-04-21T08:30:11.647Z,17.30
2019-04-21T08:32:47.977Z,17.40
2019-04-21T08:35:22.253Z,17.40
2019-04-21T08:37:33.517Z,17.60
2019-04-21T08:40:09.687Z,17.80
2019-04-21T08:42:30.524Z,18.00
2019-04-21T08:45:00.322Z,18.10
2019-04-21T08:47:28.476Z,18.30
2019-04-21T08:49:53.849Z,18.40
2019-04-21T08:52:37.125Z,18.50
2019-04-21T08:54:55.708Z,18.70
2019-04-21T08:57:24.739Z,18.70
2019-04-21T09:00:05.101Z,18.90
2019-04-21T09:02:38.182Z,19.00
2019-04-21T09:05:00.204Z,19.20
2019-04-21T09:09:51.599Z,19.30
2019-04-21T09:12:22.693Z,19.30
2019-04-21T09:14:50.920Z,19.50
2019-04-21T09:17:12.079Z,19.70
2019-04-21T09:19:51.550Z,19.80
2019-04-21T09:22:13.292Z,20.00
2019-04-21T09:24:42.941Z,20.20
2019-04-21T09:27:08.433Z,20.30
2019-04-21T09:29:28.373Z,20.40
2019-04-21T09:31:48.221Z,20.40
2019-04-21T09:34:20.657Z,20.50
2019-04-21T09:36:47.768Z,20.80
2019-04-21T09:39:15.039Z,20.80
2019-04-21T09:41:41.073Z,20.70
2019-04-21T09:44:15.167Z,20.80
2019-04-21T09:46:41.737Z,20.90
2019-04-21T09:49:09.499Z,21.00
2019-04-21T09:51:33.120Z,21.30
2019-04-21T09:54:05.819Z,21.40
2019-04-21T09:56:36.145Z,21.50
2019-04-21T09:59:05.369Z,21.60
2019-04-21T10:01:29.888Z,21.70
2019-04-21T10:03:57.207Z,21.90
2019-04-21T10:06:20.840Z,21.80
2019-04-21T10:08:51.535Z,21.90
2019-04-21T10:11:16.389Z,22.00
2019-04-21T10:13:42.692Z,22.10
2019-04-21T10:16:23.808Z,22.00
2019-04-21T10:18:50.466Z,21.90
2019-04-21T10:21:17.428Z,22.00
2019-04-21T10:23:43.814Z,22.00
2019-04-21T10:26:10.488Z,22.10
2019-04-21T10:28:37.253Z,22.20
2019-04-21T10:31:04.699Z,22.30
2019-04-21T10:33:32.436Z,22.30
2019-04-21T10:35:59.193Z,22.40
2019-04-21T10:38:34.347Z,22.50
2019-04-21T10:40:53.687Z,22.60
2019-04-21T10:43:22.150Z,22.60
2019-04-21T10:45:48.763Z,22.80
2019-04-21T10:48:15.071Z,22.80
2019-04-21T10:50:41.262Z,22.70
2019-04-21T10:53:14.284Z,22.80
2019-04-21T10:55:55.681Z,22.90
2019-04-21T10:58:10.812Z,22.90
2019-04-21T11:00:39.861Z,22.90
2019-04-21T11:03:26.909Z,22.90
2019-04-21T11:06:03.836Z,23.10
2019-04-21T11:08:34.182Z,23.20
2019-04-21T11:10:58.237Z,23.20
2019-04-21T11:13:24.427Z,23.20
2019-04-21T11:15:50.904Z,23.20
2019-04-21T11:18:17.729Z,23.20
2019-04-21T11:20:44.728Z,23.20
2019-04-21T11:23:12.072Z,23.40
2019-04-21T11:25:39.735Z,23.50
2019-04-21T11:28:07.054Z,23.50
2019-04-21T11:30:33.708Z,23.60
2019-04-21T11:33:01.184Z,23.80
2019-04-21T11:35:27.680Z,24.00
2019-04-21T11:38:04.491Z,24.00
2019-04-21T11:40:23.922Z,24.00
2019-04-21T11:42:51.535Z,24.10
2019-04-21T11:45:30.766Z,24.30
2019-04-21T11:48:06.061Z,24.30
2019-04-21T11:50:32.873Z,24.20
2019-04-21T11:52:59.130Z,24.10
2019-04-21T11:55:27.441Z,24.20
2019-04-21T11:57:54.903Z,24.30
2019-04-21T12:02:51.257Z,24.50
2019-04-21T12:05:19.352Z,24.50
2019-04-21T12:10:13.601Z,24.60
2019-04-21T12:12:39.759Z,24.70
2019-04-21T12:15:06.154Z,24.80
2019-04-21T12:17:32.213Z,24.70
2019-04-21T12:19:58.999Z,24.80
2019-04-21T12:22:28.903Z,24.90
2019-04-21T12:51:57.606Z,25.40
2019-04-21T12:54:23.935Z,25.40
2019-04-21T12:56:50.063Z,25.40
2019-04-21T12:59:16.962Z,25.40
2019-04-21T13:01:43.316Z,25.50
2019-04-21T13:04:10.142Z,25.70
2019-04-21T13:06:37.374Z,25.70
2019-04-21T13:09:10.378Z,25.60
2019-04-21T13:11:34.783Z,25.60
2019-04-21T13:14:01.927Z,25.80
2019-04-21T13:16:29.255Z,26.00
2019-04-21T13:18:55.649Z,26.10
2019-04-21T13:23:49.182Z,26.30
2019-04-21T13:26:27.594Z,26.40
2019-04-21T13:28:45.114Z,26.60
2019-04-21T13:31:11.989Z,26.60
2019-04-21T13:33:39.768Z,26.60
2019-04-21T13:36:07.697Z,26.70
2019-04-21T14:23:13.528Z,35.00
2019-04-21T14:25:30.023Z,35.00
2019-04-21T14:27:57.747Z,35.30
2019-04-21T14:30:26.190Z,35.70
2019-04-21T14:32:53.997Z,36.00
2019-04-21T14:35:20.955Z,36.30
2019-04-21T14:37:48.586Z,36.50
2019-04-21T14:40:22.532Z,36.50
2019-04-21T14:42:45.288Z,36.70
2019-04-21T17:42:53.705Z,31.60
2019-04-21T17:45:17.163Z,31.50
2019-04-21T17:47:49.993Z,31.10
2019-04-21T17:50:17.794Z,30.70
2019-04-21T17:52:55.532Z,30.20
2019-04-21T17:55:26.201Z,29.70
2019-04-21T17:58:05.172Z,29.20
2019-04-21T18:01:05.331Z,28.70
2019-04-21T18:03:21.162Z,28.30
2019-04-21T18:05:40.987Z,27.70
2019-04-21T18:08:11.424Z,27.30
2019-04-21T18:10:34.807Z,26.90
2019-04-21T18:12:57.320Z,26.50
2019-04-21T18:15:29.031Z,26.10
2019-04-21T18:17:44.843Z,25.70
2019-04-21T18:20:13.872Z,25.30
2019-04-21T18:25:28.057Z,24.70
2019-04-21T18:27:46.782Z,24.30
2019-04-21T18:30:40.257Z,24.00
2019-04-21T18:33:19.741Z,23.70
2019-04-21T18:35:45.161Z,23.50
2019-04-21T18:38:21.952Z,23.10
2019-04-21T18:40:45.281Z,22.90
2019-04-21T18:43:50.061Z,22.60
2019-04-21T18:48:31.606Z,22.20
2019-04-21T18:51:13.886Z,22.00
2019-04-21T18:54:20.143Z,21.70
2019-04-21T18:56:23.217Z,21.50
2019-04-21T18:58:50.956Z,21.20
2019-04-21T19:01:22.701Z,21.00
2019-04-21T19:03:52.199Z,20.80
2019-04-21T19:06:26.713Z,20.60
2019-04-21T19:09:08.308Z,20.40
2019-04-21T19:11:28.656Z,20.20
2019-04-21T19:14:20.797Z,20.10
2019-04-21T19:17:04.476Z,19.90
2019-04-21T19:19:31.571Z,19.70
2019-04-21T19:21:24.552Z,19.60
2019-04-21T19:24:01.618Z,19.40
2019-04-21T19:26:34.019Z,19.20
2019-04-21T19:29:01.607Z,19.10
2019-04-21T19:31:24.792Z,19.00
2019-04-21T19:33:45.291Z,18.90
2019-04-21T19:36:03.154Z,18.80
2019-04-21T19:38:44.433Z,18.70
2019-04-21T19:41:15.686Z,18.50
2019-04-21T19:43:49.193Z,18.50
2019-04-21T19:46:09.610Z,18.40
2019-04-21T19:48:44.707Z,18.20
2019-04-21T19:51:05.283Z,18.10
2019-04-21T19:53:29.929Z,18.00
2019-04-21T19:55:45.894Z,17.90
2019-04-21T19:58:12.691Z,17.80
2019-04-21T20:00:40.150Z,17.70
2019-04-21T20:03:06.437Z,17.60
2019-04-21T20:05:41.793Z,17.50
2019-04-21T20:08:17.644Z,17.40
2019-04-21T20:10:50.025Z,17.30
2019-04-21T20:13:32.265Z,17.20
2019-04-21T20:15:44.812Z,17.10
2019-04-21T20:18:07.175Z,17.00
2019-04-21T20:20:21.413Z,16.90
2019-04-21T20:22:51.828Z,16.70
2019-04-21T20:25:19.178Z,16.60
2019-04-21T20:27:52.906Z,16.50
2019-04-21T20:30:33.041Z,16.40
2019-04-21T20:33:05.967Z,16.30
2019-04-21T20:35:40.418Z,16.20
2019-04-21T20:37:52.546Z,16.10
2019-04-21T20:40:23.659Z,16.00
2019-04-21T20:42:47.001Z,15.90
2019-04-21T20:45:43.865Z,15.80
2019-04-21T20:47:40.979Z,15.70
2019-04-21T20:50:16.390Z,15.70
2019-04-21T20:52:56.596Z,15.60
2019-04-21T20:55:11.870Z,15.60
2019-04-21T20:57:43.330Z,15.50
2019-04-21T21:00:15.480Z,15.50
2019-04-21T21:02:48.899Z,15.50
2019-04-21T21:04:59.028Z,15.50
2019-04-21T21:10:07.376Z,15.30
2019-04-21T21:12:44.436Z,15.20
2019-04-21T21:14:57.738Z,15.10
2019-04-21T21:19:59.680Z,15.10
2019-04-21T21:22:23.212Z,15.10
2019-04-21T21:24:53.953Z,15.00
2019-04-21T21:27:19.689Z,14.90
2019-04-21T21:29:49.841Z,14.90
2019-04-21T21:32:27.450Z,14.80
2019-04-21T21:34:53.026Z,14.70
2019-04-21T21:37:26.624Z,14.70
2019-04-21T21:39:53.723Z,14.70
2019-04-21T21:41:58.592Z,14.60
2019-04-21T21:44:24.853Z,14.50
2019-04-21T21:47:01.594Z,14.40
2019-04-21T21:49:35.499Z,14.40
2019-04-21T21:52:01.747Z,14.40
2019-04-21T21:54:13.897Z,14.40
2019-04-21T21:56:40.773Z,14.30
2019-04-21T21:59:13.562Z,14.20
2019-04-21T22:01:38.838Z,14.10
2019-04-21T22:04:12.694Z,14.10
2019-04-21T22:06:42.126Z,14.00
2019-04-21T22:09:00.765Z,13.90
2019-04-21T22:11:27.131Z,13.80
2019-04-21T22:14:02.719Z,13.60
2019-04-21T22:16:38.888Z,13.50
2019-04-21T22:19:15.608Z,13.50
2019-04-21T22:21:44.358Z,13.50
2019-04-21T22:23:58.080Z,13.50
2019-04-21T22:26:16.028Z,13.60
2019-04-21T22:28:43.468Z,13.60
2019-04-21T22:31:15.136Z,13.50
2019-04-21T22:33:41.971Z,13.40
2019-04-21T22:36:21.085Z,13.30
2019-04-21T22:38:50.930Z,13.30
2019-04-21T22:41:15.767Z,13.30
2019-04-21T22:43:37.894Z,13.30
2019-04-21T22:45:59.025Z,13.20
2019-04-21T22:48:28.644Z,13.20
2019-04-21T22:50:53.291Z,13.20
2019-04-21T22:53:21.251Z,13.10
2019-04-21T22:55:49.517Z,13.10
2019-04-21T22:58:23.723Z,13.00
2019-04-21T23:00:51.165Z,13.00
2019-04-21T23:03:16.416Z,12.90
2019-04-21T23:05:42.718Z,12.90
2019-04-21T23:08:09.134Z,12.90
2019-04-21T23:10:35.440Z,12.80
2019-04-21T23:13:08.731Z,12.80
2019-04-21T23:15:39.490Z,12.80
2019-04-21T23:18:15.866Z,12.80
2019-04-21T23:20:46.535Z,12.80
2019-04-21T23:23:11.805Z,12.70
2019-04-21T23:25:36.538Z,12.70
2019-04-21T23:28:05.112Z,12.60
2019-04-21T23:30:38.832Z,12.60
2019-04-21T23:32:53.585Z,12.60
2019-04-21T23:35:21.798Z,12.60
2019-04-21T23:37:51.016Z,12.60
2019-04-21T23:40:17.514Z,12.50
2019-04-21T23:42:41.912Z,12.50
2019-04-21T23:45:08.607Z,12.50
2019-04-21T23:47:50.853Z,12.40
2019-04-21T23:50:17.015Z,12.40
2019-04-21T23:52:33.324Z,12.30
2019-04-21T23:54:59.414Z,12.30
2019-04-21T23:57:32.386Z,12.20
2019-04-21T23:59:57.392Z,12.10
